createdAt,value
2017-05-28T00:00:11.842Z,48.61
2017-05-28T00:01:25.566Z,48.43
2017-05-28T00:02:41.100Z,48.71
2017-05-28T00:03:56.715Z,48.69
2017-05-28T00:05:09.405Z,48.43
2017-05-28T00:06:24.851Z,48.4
2017-05-28T00:07:40.331Z,48.97
2017-05-28T00:08:56.225Z,48.97
2017-05-28T00:10:11.709Z,49.27
2017-05-28T00:11:27.163Z,49.07
2017-05-28T00:12:41.177Z,49.17
2017-05-28T00:13:56.809Z,49.07
2017-05-28T00:15:12.280Z,49.07
2017-05-28T00:16:26.287Z,49.36
2017-05-28T00:17:41.789Z,49.36
2017-05-28T00:18:57.549Z,49.94
2017-05-28T00:20:12.985Z,49.55
2017-05-28T00:21:28.418Z,49.36
2017-05-28T00:22:42.598Z,49.65
2017-05-28T00:23:58.546Z,49.27
2017-05-28T00:25:14.149Z,49.55
2017-05-28T00:26:29.618Z,49.24
2017-05-28T00:28:15.866Z,49.15
2017-05-28T00:29:31.135Z,49.55
2017-05-28T00:30:46.294Z,49.07
2017-05-28T00:32:02.124Z,49.17
2017-05-28T00:33:17.525Z,49.27
2017-05-28T00:34:33.132Z,49.15
2017-05-28T00:35:48.576Z,49.15
2017-05-28T00:37:04.105Z,49.63
2017-05-28T00:38:18.245Z,49.24
2017-05-28T00:39:33.822Z,49.53
2017-05-28T00:40:49.446Z,49.72
2017-05-28T00:42:04.870Z,49.31
2017-05-28T00:43:19.039Z,49.6
2017-05-28T00:44:34.704Z,50.46
2017-05-28T00:45:48.802Z,49.99
2017-05-28T00:47:04.243Z,49.99
2017-05-28T00:48:19.728Z,50.18
2017-05-28T00:49:35.370Z,50.08
2017-05-28T00:50:49.381Z,50.56
2017-05-28T00:52:04.803Z,50.37
2017-05-28T00:53:20.292Z,50.18
2017-05-28T00:54:35.973Z,50.46
2017-05-28T00:55:51.440Z,50.56
2017-05-28T00:57:06.871Z,51.14
2017-05-28T00:58:22.311Z,50.85
2017-05-28T00:59:38.028Z,51.33
2017-05-28T01:00:53.497Z,51.04
2017-05-28T01:02:08.953Z,51.04
2017-05-28T01:03:24.421Z,50.95
2017-05-28T01:04:40.175Z,50.85
2017-05-28T01:05:55.600Z,51.33
2017-05-28T01:07:11.030Z,51.43
2017-05-28T01:08:26.499Z,51.53
2017-05-28T01:09:42.169Z,51.62
2017-05-28T01:10:57.629Z,51.43
2017-05-28T01:12:13.121Z,51.53
2017-05-28T01:13:28.260Z,51.72
2017-05-28T01:14:43.926Z,51.81
2017-05-28T01:15:59.401Z,52
2017-05-28T01:17:13.530Z,52.2
2017-05-28T01:18:27.656Z,52.26
2017-05-28T01:19:41.983Z,52.17
2017-05-28T01:20:57.432Z,52.46
2017-05-28T01:22:12.904Z,52.55
2017-05-28T01:23:28.328Z,52.55
2017-05-28T01:24:43.989Z,52.84
2017-05-28T01:25:59.413Z,52.46
2017-05-28T01:27:13.593Z,52.84
2017-05-28T01:28:29.078Z,52.84
2017-05-28T01:29:44.907Z,52.55
2017-05-28T01:31:00.325Z,53.23
2017-05-28T01:32:15.790Z,53.61
2017-05-28T01:33:30.041Z,53.52
2017-05-28T01:34:45.681Z,53.61
2017-05-28T01:36:01.100Z,53.7
2017-05-28T01:37:15.240Z,53.52
2017-05-28T01:38:28.103Z,53.42
2017-05-28T01:39:43.563Z,53.8
2017-05-28T01:40:57.942Z,53.52
2017-05-28T01:42:12.434Z,54.09
2017-05-28T01:43:27.892Z,54.25
2017-05-28T01:44:43.495Z,54.55
2017-05-28T01:45:59.276Z,54.35
2017-05-28T01:47:14.950Z,54.64
2017-05-28T01:48:30.393Z,54.55
2017-05-28T01:49:45.870Z,54.55
2017-05-28T01:51:01.927Z,54.45
2017-05-28T01:52:17.381Z,54.55
2017-05-28T01:53:32.835Z,54.35
2017-05-28T01:54:48.317Z,54.64
2017-05-28T01:56:04.154Z,54.86
2017-05-28T01:57:19.635Z,54.86
2017-05-28T01:58:35.066Z,54.67
2017-05-28T01:59:50.135Z,54.86
2017-05-28T02:01:04.502Z,54.86
2017-05-28T02:02:19.982Z,54.77
2017-05-28T02:03:35.659Z,54.77
2017-05-28T02:04:51.129Z,54.74
2017-05-28T02:06:05.348Z,55.12
2017-05-28T02:07:20.789Z,55.12
2017-05-28T02:08:36.435Z,54.64
2017-05-28T02:09:49.172Z,54.64
2017-05-28T02:11:03.383Z,55.12
2017-05-28T02:12:19.166Z,55.12
2017-05-28T02:13:34.803Z,55.22
2017-05-28T02:14:49.013Z,55.22
2017-05-28T02:16:03.270Z,54.93
2017-05-28T02:17:18.674Z,55.51
2017-05-28T02:18:34.213Z,55.22
2017-05-28T02:19:49.675Z,55.12
2017-05-28T02:21:03.971Z,55.47
2017-05-28T02:22:19.441Z,55.38
2017-05-28T02:23:33.618Z,55.38
2017-05-28T02:24:49.020Z,55.77
2017-05-28T02:26:04.760Z,56.05
2017-05-28T02:27:20.194Z,55.57
2017-05-28T02:28:35.615Z,55.77
2017-05-28T02:29:51.027Z,56.24
2017-05-28T02:31:06.728Z,55.96
2017-05-28T02:32:22.244Z,56.15
2017-05-28T02:33:36.282Z,56.34
2017-05-28T02:34:50.246Z,56.24
2017-05-28T02:36:04.334Z,55.96
2017-05-28T02:37:19.957Z,56.15
2017-05-28T02:38:35.502Z,56.15
2017-05-28T02:39:50.973Z,56.34
2017-05-28T02:41:04.934Z,56.24
2017-05-28T02:42:19.352Z,56.15
2017-05-28T02:43:34.841Z,56.02
2017-05-28T02:44:50.324Z,56.51
2017-05-28T02:46:04.461Z,56.41
2017-05-28T02:47:20.121Z,56.51
2017-05-28T02:48:35.569Z,56.41
2017-05-28T02:49:50.967Z,56.41
2017-05-28T02:51:06.434Z,56.22
2017-05-28T02:52:19.525Z,56.22
2017-05-28T02:53:34.903Z,56.31
2017-05-28T02:54:49.024Z,56.31
2017-05-28T02:56:04.440Z,56.31
2017-05-28T02:57:20.074Z,56.41
2017-05-28T02:58:34.109Z,56.12
2017-05-28T02:59:49.560Z,56.6
2017-05-28T03:01:03.680Z,56.41
2017-05-28T03:02:19.363Z,56.41
2017-05-28T03:03:34.842Z,56.31
2017-05-28T03:04:49.004Z,56.29
2017-05-28T03:06:04.128Z,56.89
2017-05-28T03:07:18.459Z,56.48
2017-05-28T03:08:34.014Z,56.67
2017-05-28T03:09:49.679Z,56.51
2017-05-28T03:11:05.110Z,56.51
2017-05-28T03:12:20.778Z,56.48
2017-05-28T03:13:34.949Z,56.38
2017-05-28T03:14:50.420Z,56.38
2017-05-28T03:16:05.831Z,56.7
2017-05-28T03:17:21.505Z,56.96
2017-05-28T03:18:35.684Z,56.86
2017-05-28T03:19:49.804Z,56.86
2017-05-28T03:21:05.208Z,56.86
2017-05-28T03:22:20.629Z,57.34
2017-05-28T03:23:36.569Z,57.24
2017-05-28T03:24:52.212Z,57.24
2017-05-28T03:26:07.674Z,57.24
2017-05-28T03:27:23.154Z,57.15
2017-05-28T03:28:38.985Z,57.15
2017-05-28T03:29:54.372Z,57.24
2017-05-28T03:31:09.894Z,57.34
2017-05-28T03:32:25.263Z,57.15
2017-05-28T03:33:39.483Z,57.53
2017-05-28T03:34:53.553Z,57.92
2017-05-28T03:36:07.720Z,57.63
2017-05-28T03:37:23.176Z,57.63
2017-05-28T03:38:38.812Z,58.2
2017-05-28T03:39:52.994Z,58.2
2017-05-28T03:41:08.460Z,57.92
2017-05-28T03:42:22.587Z,58.11
2017-05-28T03:43:38.234Z,57.92
2017-05-28T03:44:53.720Z,58.2
2017-05-28T03:46:09.097Z,58.11
2017-05-28T03:47:24.546Z,58.2
2017-05-28T03:48:40.190Z,58.3
2017-05-28T03:49:55.682Z,58.39
2017-05-28T03:51:09.416Z,58.11
2017-05-28T03:52:24.870Z,58.3
2017-05-28T03:53:39.068Z,58.78
2017-05-28T03:55:25.577Z,58.69
2017-05-28T03:56:40.991Z,58.39
2017-05-28T03:57:55.310Z,58.3
2017-05-28T03:59:10.712Z,58.69
2017-05-28T04:00:26.234Z,58.69
2017-05-28T04:01:41.668Z,58.59
2017-05-28T04:02:57.259Z,58.2
2017-05-28T04:04:12.725Z,58.39
2017-05-28T04:05:28.113Z,58.69
2017-05-28T04:06:43.830Z,58.39
2017-05-28T04:07:59.458Z,58.49
2017-05-28T04:09:14.886Z,58.49
2017-05-28T04:10:30.301Z,58.87
2017-05-28T04:11:45.770Z,58.69
2017-05-28T04:13:01.373Z,58.97
2017-05-28T04:14:16.795Z,59.06
2017-05-28T04:15:32.311Z,59.36
2017-05-28T04:16:47.396Z,59.06
2017-05-28T04:18:03.392Z,58.97
2017-05-28T04:19:18.849Z,59.16
2017-05-28T04:20:34.278Z,58.97
2017-05-28T04:21:49.727Z,59.36
2017-05-28T04:23:05.578Z,59.36
2017-05-28T04:24:21.044Z,58.97
2017-05-28T04:25:36.387Z,58.91
2017-05-28T04:26:51.766Z,59.09
2017-05-28T04:28:07.390Z,59.29
2017-05-28T04:29:22.799Z,59
2017-05-28T04:30:38.270Z,59.29
2017-05-28T04:31:53.711Z,59.19
2017-05-28T04:33:09.381Z,59.09
2017-05-28T04:34:24.816Z,59.19
2017-05-28T04:35:40.143Z,59.19
2017-05-28T04:36:55.617Z,59.38
2017-05-28T04:38:11.194Z,59.58
2017-05-28T04:39:25.319Z,59.48
2017-05-28T04:40:39.470Z,59.29
2017-05-28T04:41:54.919Z,59.29
2017-05-28T04:43:10.538Z,59.48
2017-05-28T04:44:24.614Z,59.29
2017-05-28T04:45:40.028Z,59.29
2017-05-28T04:46:55.519Z,59.19
2017-05-28T04:48:11.271Z,58.81
2017-05-28T04:49:25.362Z,59
2017-05-28T04:50:40.820Z,59.19
2017-05-28T04:51:54.918Z,59.12
2017-05-28T04:53:10.373Z,59.41
2017-05-28T04:54:26.043Z,59.41
2017-05-28T04:55:41.474Z,59.03
2017-05-28T04:56:56.973Z,59.03
2017-05-28T04:58:12.438Z,59.12
2017-05-28T04:59:26.905Z,58.74
2017-05-28T05:00:42.593Z,58.94
2017-05-28T05:01:58.007Z,58.84
2017-05-28T05:03:13.446Z,58.36
2017-05-28T05:04:29.399Z,58.94
2017-05-28T05:05:44.837Z,58.84
2017-05-28T05:07:00.279Z,58.84
2017-05-28T05:08:15.737Z,58.64
2017-05-28T05:09:29.921Z,58.45
2017-05-28T05:10:45.316Z,58.67
2017-05-28T05:11:58.143Z,58.77
2017-05-28T05:13:13.586Z,58.67
2017-05-28T05:14:29.257Z,58.29
2017-05-28T05:15:45.032Z,58.48
2017-05-28T05:17:00.478Z,58.58
2017-05-28T05:18:15.933Z,58.1
2017-05-28T05:19:31.648Z,58.29
2017-05-28T05:20:47.088Z,58.48
2017-05-28T05:22:02.512Z,58.77
2017-05-28T05:23:16.314Z,58.67
2017-05-28T05:24:29.367Z,58.48
2017-05-28T05:25:44.837Z,58.39
2017-05-28T05:26:57.671Z,57.9
2017-05-28T05:28:13.090Z,58.1
2017-05-28T05:29:28.740Z,58.1
2017-05-28T05:30:42.695Z,58.2
2017-05-28T05:31:58.177Z,58.22
2017-05-28T05:33:13.635Z,58.22
2017-05-28T05:34:29.300Z,58.32
2017-05-28T05:35:44.789Z,58.22
2017-05-28T05:36:59.239Z,57.93
2017-05-28T05:38:13.335Z,58.03
2017-05-28T05:39:29.221Z,57.84
2017-05-28T05:40:43.339Z,57.93
2017-05-28T05:41:58.731Z,57.77
2017-05-28T05:43:14.100Z,57.48
2017-05-28T05:44:29.985Z,57.26
2017-05-28T05:45:45.396Z,57.29
2017-05-28T05:46:59.398Z,57.48
2017-05-28T05:48:14.850Z,57.39
2017-05-28T05:49:29.019Z,57.58
2017-05-28T05:50:45.076Z,57.58
2017-05-28T05:51:59.231Z,57.58
2017-05-28T05:53:13.336Z,57.29
2017-05-28T05:54:28.719Z,57.2
2017-05-28T05:55:44.346Z,57.2
2017-05-28T05:56:59.723Z,57.39
2017-05-28T05:58:13.872Z,56.93
2017-05-28T05:59:29.548Z,57.03
2017-05-28T06:00:45.360Z,56.84
2017-05-28T06:02:00.484Z,56.55
2017-05-28T06:03:15.900Z,56.93
2017-05-28T06:04:31.285Z,57.03
2017-05-28T06:05:47.006Z,56.84
2017-05-28T06:07:01.124Z,56.55
2017-05-28T06:08:16.568Z,56.58
2017-05-28T06:09:32.071Z,56.58
2017-05-28T06:10:47.750Z,56.58
2017-05-28T06:12:01.514Z,56.29
2017-05-28T06:13:15.637Z,56.29
2017-05-28T06:14:31.086Z,56.2
2017-05-28T06:15:46.823Z,56.2
2017-05-28T06:17:02.189Z,56.1
2017-05-28T06:18:16.578Z,56
2017-05-28T06:19:32.022Z,55.9
2017-05-28T06:20:46.326Z,55.81
2017-05-28T06:22:00.712Z,55.55
2017-05-28T06:23:14.801Z,55.74
2017-05-28T06:24:27.648Z,55.45
2017-05-28T06:25:43.281Z,55.74
2017-05-28T06:26:58.789Z,55.65
2017-05-28T06:28:14.204Z,55.65
2017-05-28T06:29:29.652Z,55.55
2017-05-28T06:30:45.297Z,55.26
2017-05-28T06:32:00.350Z,55.35
2017-05-28T06:33:13.096Z,55.55
2017-05-28T06:34:28.516Z,55.29
2017-05-28T06:35:44.010Z,55.57
2017-05-28T06:36:59.624Z,55.48
2017-05-28T06:38:15.084Z,55.38
2017-05-28T06:39:30.578Z,55.19
2017-05-28T06:40:44.545Z,55.29
2017-05-28T06:42:00.155Z,55.57
2017-05-28T06:43:15.872Z,55.29
2017-05-28T06:44:31.348Z,55.19
2017-05-28T06:45:45.377Z,55.38
2017-05-28T06:47:00.971Z,55.31
2017-05-28T06:48:16.464Z,54.93
2017-05-28T06:49:31.901Z,54.83
2017-05-28T06:50:47.381Z,54.74
2017-05-28T06:52:03.035Z,54.44
2017-05-28T06:53:18.540Z,54.64
2017-05-28T06:54:33.993Z,54.35
2017-05-28T06:55:49.409Z,54.44
2017-05-28T06:57:05.095Z,54.35
2017-05-28T06:58:20.559Z,54.25
2017-05-28T06:59:36.064Z,54.16
2017-05-28T07:00:51.695Z,53.89
2017-05-28T07:02:07.365Z,53.41
2017-05-28T07:03:22.723Z,53.89
2017-05-28T07:04:38.312Z,53.7
2017-05-28T07:05:52.492Z,53.61
2017-05-28T07:07:08.103Z,53.7
2017-05-28T07:08:22.216Z,53.51
2017-05-28T07:09:37.918Z,53.61
2017-05-28T07:10:53.537Z,53.31
2017-05-28T07:12:09.211Z,53.8
2017-05-28T07:13:24.611Z,53.61
2017-05-28T07:14:39.768Z,53.61
2017-05-28T07:15:53.930Z,53.63
2017-05-28T07:17:08.235Z,53.92
2017-05-28T07:18:23.714Z,53.83
2017-05-28T07:19:39.129Z,53.44
2017-05-28T07:20:54.651Z,53.25
2017-05-28T07:22:10.238Z,53.15
2017-05-28T07:23:25.625Z,53.44
2017-05-28T07:24:41.503Z,53.15
2017-05-28T07:25:57.178Z,53.17
2017-05-28T07:27:12.914Z,53.08
2017-05-28T07:28:28.384Z,53.08
2017-05-28T07:29:43.806Z,52.98
2017-05-28T07:30:59.224Z,53.08
2017-05-28T07:32:15.220Z,52.98
2017-05-28T07:33:30.745Z,52.98
2017-05-28T07:34:46.209Z,53.11
2017-05-28T07:36:01.735Z,53.01
2017-05-28T07:37:17.372Z,52.91
2017-05-28T07:38:33.058Z,52.91
2017-05-28T07:39:47.252Z,52.91
2017-05-28T07:41:02.689Z,52.91
2017-05-28T07:42:17.057Z,53.2
2017-05-28T07:43:29.921Z,53.13
2017-05-28T07:44:43.975Z,52.81
2017-05-28T07:45:59.740Z,53.13
2017-05-28T07:47:15.422Z,52.65
2017-05-28T07:48:30.967Z,52.94
2017-05-28T07:49:46.404Z,52.26
2017-05-28T07:51:02.077Z,52.36
2017-05-28T07:52:16.424Z,52.09
2017-05-28T07:53:32.463Z,51.71
2017-05-28T07:54:46.587Z,52.09
2017-05-28T07:56:02.062Z,52.19
2017-05-28T07:57:17.693Z,51.42
2017-05-28T07:58:33.134Z,51.64
2017-05-28T07:59:48.871Z,50.96
2017-05-28T08:01:04.343Z,51.44
2017-05-28T08:02:20.002Z,50.76
2017-05-28T08:03:35.512Z,50.76
2017-05-28T08:04:50.925Z,50.67
2017-05-28T08:06:04.935Z,50.48
2017-05-28T08:07:20.622Z,50.48
2017-05-28T08:08:36.475Z,50.09
2017-05-28T08:09:51.944Z,50.4
2017-05-28T08:11:06.141Z,50.5
2017-05-28T08:12:21.806Z,50.4
2017-05-28T08:13:37.266Z,50.4
2017-05-28T08:14:51.402Z,50.02
2017-05-28T08:16:05.437Z,50.12
2017-05-28T08:17:21.365Z,50.24
2017-05-28T08:18:35.592Z,49.95
2017-05-28T08:19:51.367Z,50.14
2017-05-28T08:21:06.860Z,49.87
2017-05-28T08:22:22.584Z,49.39
2017-05-28T08:23:36.717Z,49.49
2017-05-28T08:24:51.985Z,49.58
2017-05-28T08:26:07.731Z,49.61
2017-05-28T08:27:23.387Z,48.74
2017-05-28T08:28:38.832Z,48.95
2017-05-28T08:29:54.279Z,48.18
2017-05-28T08:31:09.683Z,48.08
2017-05-28T08:32:25.371Z,47.91
2017-05-28T08:33:39.401Z,48.1
2017-05-28T08:34:54.880Z,47.62
2017-05-28T08:36:10.291Z,46.96
2017-05-28T08:37:24.480Z,46.48
2017-05-28T08:38:38.989Z,46.67
2017-05-28T08:39:54.386Z,46.67
2017-05-28T08:41:09.830Z,46.21
2017-05-28T08:42:25.297Z,45.62
2017-05-28T08:43:41.053Z,46.01
2017-05-28T08:44:55.481Z,45.53
2017-05-28T08:46:10.949Z,45.55
2017-05-28T08:47:26.423Z,45.45
2017-05-28T08:48:42.249Z,44.79
2017-05-28T08:49:57.275Z,44.99
2017-05-28T08:51:12.740Z,44.43
2017-05-28T08:52:28.234Z,43.67
2017-05-28T08:53:43.877Z,42.82
2017-05-28T08:54:59.363Z,42.65
2017-05-28T08:56:14.851Z,41.13
2017-05-28T08:57:30.219Z,40.48
2017-05-28T08:58:45.956Z,39.65
2017-05-28T08:59:58.707Z,38.59
2017-05-28T09:01:14.477Z,37.24
2017-05-28T09:02:29.975Z,35.99
2017-05-28T09:03:45.612Z,35.53
2017-05-28T09:05:01.061Z,34.38
2017-05-28T09:06:16.625Z,34.18
2017-05-28T09:07:30.769Z,33.5
2017-05-28T09:08:46.470Z,32.73
2017-05-28T09:10:01.887Z,32.23
2017-05-28T09:11:17.373Z,33.02
2017-05-28T09:12:32.803Z,32.73
2017-05-28T09:13:48.567Z,32.15
2017-05-28T09:15:04.066Z,32.27
2017-05-28T09:16:19.545Z,31.5
2017-05-28T09:17:35.012Z,31.22
2017-05-28T09:18:50.715Z,31.04
2017-05-28T09:20:06.179Z,30.17
2017-05-28T09:21:21.299Z,29.99
2017-05-28T09:22:36.833Z,29.69
2017-05-28T09:23:52.507Z,28.72
2017-05-28T09:25:06.636Z,28.13
2017-05-28T09:26:22.136Z,27.74
2017-05-28T09:27:37.216Z,27.06
2017-05-28T09:28:50.246Z,27.08
2017-05-28T09:30:04.418Z,26.7
2017-05-28T09:31:19.896Z,26.51
2017-05-28T09:32:35.632Z,26.32
2017-05-28T09:33:51.658Z,25.44
2017-05-28T09:35:07.239Z,25.04
2017-05-28T09:36:22.760Z,23.97
2017-05-28T09:37:38.491Z,23.68
2017-05-28T09:38:54.247Z,23.19
2017-05-28T09:40:08.284Z,23.1
2017-05-28T09:41:23.950Z,21.91
2017-05-28T09:42:38.215Z,22.81
2017-05-28T09:43:52.752Z,22.91
2017-05-28T09:45:08.505Z,22.72
2017-05-28T09:46:23.982Z,21.73
2017-05-28T09:47:39.505Z,22.04
2017-05-28T09:48:53.893Z,22.04
2017-05-28T09:50:08.079Z,20.76
2017-05-28T09:51:22.209Z,21.16
2017-05-28T09:52:38.057Z,19.58
2017-05-28T09:53:52.113Z,20.06
2017-05-28T09:55:06.741Z,20.26
2017-05-28T09:56:20.995Z,20.06
2017-05-28T09:57:36.816Z,20.27
2017-05-28T09:58:52.511Z,18.99
2017-05-28T10:00:07.973Z,19.68
2017-05-28T10:01:23.543Z,18.69
2017-05-28T10:02:39.094Z,18.69
2017-05-28T10:03:53.417Z,18.59
2017-05-28T10:05:08.861Z,18.69
2017-05-28T10:06:24.380Z,18.58
2017-05-28T10:07:39.938Z,18.58
2017-05-28T10:08:55.589Z,19.07
2017-05-28T10:10:11.118Z,19.15
2017-05-28T10:11:26.859Z,19.26
2017-05-28T10:12:41.971Z,19.34
2017-05-28T10:13:57.356Z,19.43
2017-05-28T10:15:13.099Z,19.93
2017-05-28T10:16:28.568Z,20.61
2017-05-28T10:17:44.131Z,20.7
2017-05-28T10:19:00.094Z,20.99
2017-05-28T10:20:15.592Z,21.09
2017-05-28T10:21:31.085Z,21.57
2017-05-28T10:22:45.225Z,21.36
2017-05-28T10:23:59.390Z,21.75
2017-05-28T10:25:15.189Z,22.63
2017-05-28T10:26:31.008Z,23.41
2017-05-28T10:27:46.497Z,23.5
2017-05-28T10:29:01.970Z,23.89
2017-05-28T10:30:17.661Z,24.07
2017-05-28T10:31:33.128Z,24.66
2017-05-28T10:32:48.632Z,24.26
2017-05-28T10:34:04.100Z,24.46
2017-05-28T10:35:18.145Z,23.68
2017-05-28T10:36:33.626Z,23.97
2017-05-28T10:37:49.158Z,23.99
2017-05-28T10:39:04.807Z,22.91
2017-05-28T10:40:20.511Z,22.72
2017-05-28T10:41:35.996Z,23
2017-05-28T10:42:51.537Z,24.18
2017-05-28T10:44:06.979Z,24.27
2017-05-28T10:45:22.650Z,24.96
2017-05-28T10:46:38.192Z,24.75
2017-05-28T10:47:53.678Z,24.84
2017-05-28T10:49:09.167Z,24.93
2017-05-28T10:50:24.828Z,25.33
2017-05-28T10:51:40.389Z,24.93
2017-05-28T10:52:55.834Z,25.32
2017-05-28T10:54:11.328Z,25.4
2017-05-28T10:55:26.997Z,25.99
2017-05-28T10:56:42.503Z,25.89
2017-05-28T10:57:57.988Z,25.79
2017-05-28T10:59:13.818Z,25.31
2017-05-28T11:00:29.526Z,25.4
2017-05-28T11:01:45.587Z,25.01
2017-05-28T11:03:01.138Z,24.63
2017-05-28T11:04:16.661Z,25.03
2017-05-28T11:05:32.406Z,24.25
2017-05-28T11:06:47.898Z,23.38
2017-05-28T11:08:03.394Z,23.09
2017-05-28T11:09:19.181Z,23.49
2017-05-28T11:10:35.212Z,23.97
2017-05-28T11:11:50.757Z,23.5
2017-05-28T11:13:06.221Z,22.92
2017-05-28T11:14:21.382Z,23.11
2017-05-28T11:15:37.303Z,23.13
2017-05-28T11:16:52.795Z,22.83
2017-05-28T11:18:06.946Z,22.74
2017-05-28T11:19:22.444Z,21.86
2017-05-28T11:20:38.200Z,21.95
2017-05-28T11:21:53.684Z,21.77
2017-05-28T11:23:07.792Z,22.06
2017-05-28T11:24:21.932Z,22.06
2017-05-28T11:25:37.595Z,21.67
2017-05-28T11:26:53.315Z,21.57
2017-05-28T11:28:08.851Z,21.67
2017-05-28T11:29:24.363Z,21.76
2017-05-28T11:30:40.128Z,22.25
2017-05-28T11:31:55.573Z,21.56
2017-05-28T11:33:11.022Z,21.95
2017-05-28T11:34:26.613Z,21.36
2017-05-28T11:35:42.643Z,21.36
2017-05-28T11:36:58.215Z,21.57
2017-05-28T11:38:13.772Z,21.28
2017-05-28T11:39:29.539Z,20.88
2017-05-28T11:40:44.010Z,20.5
2017-05-28T11:41:59.772Z,20.68
2017-05-28T11:43:15.576Z,21.18
2017-05-28T11:44:31.115Z,21.39
2017-05-28T11:45:46.783Z,20.89
2017-05-28T11:47:02.527Z,21.19
2017-05-28T11:48:17.997Z,21.19
2017-05-28T11:49:33.168Z,21.58
2017-05-28T11:50:48.931Z,21.68
2017-05-28T11:52:04.417Z,20.89
2017-05-28T11:53:19.967Z,21.58
2017-05-28T11:54:35.505Z,21.98
2017-05-28T11:55:49.951Z,21.68
2017-05-28T11:57:05.367Z,21.79
2017-05-28T11:58:20.833Z,21.58
2017-05-28T11:59:34.654Z,22.17
2017-05-28T12:00:50.682Z,21.68
2017-05-28T12:02:06.196Z,21.78
2017-05-28T12:03:21.737Z,20.89
2017-05-28T12:04:35.914Z,21.39
2017-05-28T12:05:51.624Z,21.77
2017-05-28T12:07:07.105Z,21.57
2017-05-28T12:08:22.629Z,21.86
2017-05-28T12:09:38.167Z,22.94
2017-05-28T12:10:53.862Z,23.14
2017-05-28T12:12:09.327Z,23.14
2017-05-28T12:13:24.811Z,23.62
2017-05-28T12:14:40.655Z,24.01
2017-05-28T12:15:56.624Z,23.62
2017-05-28T12:17:12.185Z,23.52
2017-05-28T12:18:27.711Z,24.19
2017-05-28T12:19:43.434Z,24.29
2017-05-28T12:20:59.169Z,24.29
2017-05-28T12:22:14.865Z,24.98
2017-05-28T12:23:30.295Z,24.49
2017-05-28T12:24:45.740Z,23.9
2017-05-28T12:25:59.988Z,24
2017-05-28T12:27:15.564Z,24.41
2017-05-28T12:28:31.108Z,24.98
2017-05-28T12:29:46.645Z,23.8
2017-05-28T12:31:02.390Z,24.29
2017-05-28T12:32:17.912Z,24.19
2017-05-28T12:33:33.436Z,24.97
2017-05-28T12:34:48.989Z,24.79
2017-05-28T12:36:05.287Z,25.27
2017-05-28T12:37:20.973Z,24.68
2017-05-28T12:38:36.447Z,24.96
2017-05-28T12:39:51.876Z,24.27
2017-05-28T12:41:07.674Z,23.88
2017-05-28T12:42:20.477Z,24.46
2017-05-28T12:43:36.385Z,24.64
2017-05-28T12:44:51.854Z,24.84
2017-05-28T12:46:07.533Z,25.03
2017-05-28T12:47:23.021Z,25.22
2017-05-28T12:48:37.271Z,24.73
2017-05-28T12:49:52.797Z,24.42
2017-05-28T12:51:07.264Z,24.8
2017-05-28T12:52:22.712Z,25.1
2017-05-28T12:54:08.928Z,25.98
2017-05-28T12:55:24.854Z,26.45
2017-05-28T12:56:40.613Z,26.25
2017-05-28T12:57:56.092Z,26.44
2017-05-28T12:59:11.611Z,26.23
2017-05-28T13:00:27.185Z,26.14
2017-05-28T13:01:42.904Z,26.33
2017-05-28T13:02:58.396Z,27.21
2017-05-28T13:04:13.863Z,27.98
2017-05-28T13:05:29.684Z,27.5
2017-05-28T13:06:44.108Z,27.2
2017-05-28T13:07:59.820Z,27.2
2017-05-28T13:09:15.318Z,27.88
2017-05-28T13:10:31.045Z,28.38
2017-05-28T13:11:45.546Z,28.47
2017-05-28T13:13:01.098Z,28.67
2017-05-28T13:14:16.614Z,29.25
2017-05-28T13:15:32.053Z,29.74
2017-05-28T13:16:47.879Z,28.67
2017-05-28T13:18:03.404Z,27.88
2017-05-28T13:19:18.863Z,26.61
2017-05-28T13:20:34.380Z,27
2017-05-28T13:21:50.139Z,26.42
2017-05-28T13:23:05.708Z,26.72
2017-05-28T13:24:19.904Z,26.92
2017-05-28T13:25:33.863Z,26.53
2017-05-28T13:26:49.533Z,26.43
2017-05-28T13:28:05.064Z,26.82
2017-05-28T13:29:20.564Z,27.21
2017-05-28T13:30:34.675Z,27.9
2017-05-28T13:31:50.346Z,27.9
2017-05-28T13:33:05.977Z,28.29
2017-05-28T13:34:20.206Z,28.49
2017-05-28T13:35:34.411Z,28.78
2017-05-28T13:36:49.864Z,28.67
2017-05-28T13:38:05.478Z,29.16
2017-05-28T13:39:21.013Z,29.16
2017-05-28T13:40:33.876Z,29.55
2017-05-28T13:41:49.374Z,29.94
2017-05-28T13:43:05.099Z,29.63
2017-05-28T13:44:19.166Z,29.44
2017-05-28T13:45:34.609Z,29.44
2017-05-28T13:46:48.791Z,29.61
2017-05-28T13:48:03.151Z,30.2
2017-05-28T13:49:18.623Z,30.59
2017-05-28T13:50:34.110Z,31.07
2017-05-28T13:51:49.589Z,31.36
2017-05-28T13:53:03.961Z,31.54
2017-05-28T13:54:18.237Z,31.45
2017-05-28T13:55:33.736Z,31.45
2017-05-28T13:56:49.226Z,32.01
2017-05-28T13:58:03.603Z,32.62
2017-05-28T13:59:19.059Z,34.65
2017-05-28T14:00:34.606Z,35.33
2017-05-28T14:01:50.097Z,36.49
2017-05-28T14:03:05.723Z,37.27
2017-05-28T14:04:19.876Z,38.73
2017-05-28T14:05:35.381Z,40.58
2017-05-28T14:06:51.230Z,41.17
2017-05-28T14:08:06.988Z,41.35
2017-05-28T14:09:22.395Z,40.86
2017-05-28T14:10:37.845Z,41.83
2017-05-28T14:11:50.763Z,45.25
2017-05-28T14:13:06.457Z,47.68
2017-05-28T14:14:21.962Z,46.12
2017-05-28T14:15:37.454Z,46.59
2017-05-28T14:16:52.958Z,44.93
2017-05-28T14:18:08.680Z,45.81
2017-05-28T14:19:24.165Z,46.49
2017-05-28T14:20:39.651Z,48.54
2017-05-28T14:21:55.204Z,46.97
2017-05-28T14:23:10.897Z,46.88
2017-05-28T14:24:26.430Z,46.88
2017-05-28T14:25:41.930Z,46.88
2017-05-28T14:26:56.170Z,48.54
2017-05-28T14:28:11.871Z,48.05
2017-05-28T14:29:26.001Z,47.66
2017-05-28T14:30:41.496Z,47.27
2017-05-28T14:31:56.908Z,46.66
2017-05-28T14:33:11.223Z,46.37
2017-05-28T14:34:27.109Z,47.15
2017-05-28T14:35:42.579Z,47.44
2017-05-28T14:36:58.149Z,48.32
2017-05-28T14:38:12.277Z,48.41
2017-05-28T14:39:28.029Z,49.19
2017-05-28T14:40:44.367Z,47.83
2017-05-28T14:41:59.801Z,46.86
2017-05-28T14:43:13.967Z,48.61
2017-05-28T14:44:29.668Z,47.73
2017-05-28T14:45:45.166Z,48.44
2017-05-28T14:47:00.709Z,45.9
2017-05-28T14:48:14.715Z,45.98
2017-05-28T14:49:30.365Z,44.9
2017-05-28T14:50:45.856Z,44.23
2017-05-28T14:52:01.432Z,43.44
2017-05-28T14:53:16.905Z,43.84
2017-05-28T14:54:32.645Z,43.93
2017-05-28T14:55:46.843Z,44.03
2017-05-28T14:57:02.358Z,43.74
2017-05-28T14:58:18.064Z,43.64
2017-05-28T14:59:33.771Z,44.03
2017-05-28T15:00:49.322Z,44.03
2017-05-28T15:02:04.822Z,43.15
2017-05-28T15:03:19.243Z,43.74
2017-05-28T15:04:35.041Z,43.35
2017-05-28T15:05:50.493Z,43.35
2017-05-28T15:07:06.080Z,43.35
2017-05-28T15:08:21.574Z,43.05
2017-05-28T15:09:37.243Z,42.76
2017-05-28T15:10:52.812Z,42.76
2017-05-28T15:12:08.338Z,42.57
2017-05-28T15:13:22.546Z,42.86
2017-05-28T15:14:38.218Z,42.28
2017-05-28T15:15:53.591Z,41.89
2017-05-28T15:17:09.122Z,41.4
2017-05-28T15:18:24.609Z,41.69
2017-05-28T15:19:40.332Z,41.89
2017-05-28T15:20:55.944Z,41.5
2017-05-28T15:22:11.421Z,41.5
2017-05-28T15:23:26.974Z,41.4
2017-05-28T15:24:42.715Z,41.69
2017-05-28T15:25:58.166Z,41.79
2017-05-28T15:27:13.667Z,41.4
2017-05-28T15:28:27.867Z,41.2
2017-05-28T15:29:42.288Z,41.11
2017-05-28T15:30:57.748Z,41.4
2017-05-28T15:32:13.294Z,41.5
2017-05-28T15:33:28.773Z,41.89
2017-05-28T15:34:43.117Z,41.69
2017-05-28T15:35:58.587Z,41.89
2017-05-28T15:37:14.276Z,41.79
2017-05-28T15:38:29.832Z,41.4
2017-05-28T15:39:45.468Z,41.3
2017-05-28T15:40:59.527Z,41.22
2017-05-28T15:42:15.044Z,40.93
2017-05-28T15:43:30.486Z,40.35
2017-05-28T15:44:46.252Z,40.25
2017-05-28T15:46:01.736Z,40.45
2017-05-28T15:47:17.264Z,40.55
2017-05-28T15:48:31.300Z,41.03
2017-05-28T15:49:47.025Z,41.22
2017-05-28T15:51:02.712Z,40.93
2017-05-28T15:52:18.306Z,39.75
2017-05-28T15:53:33.786Z,40.03
2017-05-28T15:54:49.502Z,39.84
2017-05-28T15:56:04.960Z,39.26
2017-05-28T15:57:20.424Z,39.18
2017-05-28T15:58:35.887Z,39.45
2017-05-28T15:59:51.562Z,39.84
2017-05-28T16:01:07.008Z,39.06
2017-05-28T16:02:22.537Z,39.06
2017-05-28T16:03:38.269Z,39.84
2017-05-28T16:04:54.212Z,39.76
2017-05-28T16:06:09.972Z,39.86
2017-05-28T16:07:25.135Z,39.96
2017-05-28T16:08:40.611Z,40.06
2017-05-28T16:09:56.369Z,39.86
2017-05-28T16:11:09.129Z,40.06
2017-05-28T16:12:24.640Z,39.86
2017-05-28T16:13:40.145Z,38.51